Time;durP1;ratioP1;P1;durP2;ratioP2;P2;SDS_P1;SDS_P2;PMS_P1;PMS_P2;Temp;Humidity;BMP_temperature;BMP_pressure;BME280_temperature;BME280_humidity;BME280_pressure;Samples;Min_cycle;Max_cycle;Signal;HPM_P1;HPM_P2
2022/02/15 00:02:04;;;;;;;4.28;1.17;;;6.40;99.90;;;;;;4934742;28;20366;-81
2022/02/15 00:04:30;;;;;;;3.50;0.80;;;6.50;99.90;;;;;;4949345;28;20493;-80
2022/02/15 00:06:56;;;;;;;2.67;0.82;;;6.40;99.90;;;;;;4919056;28;20086;-80
2022/02/15 00:09:22;;;;;;;9.10;1.27;;;6.40;99.90;;;;;;4946681;28;20051;-81
2022/02/15 00:11:48;;;;;;;2.92;0.82;;;6.30;99.90;;;;;;4941839;28;20057;-81
2022/02/15 00:14:14;;;;;;;1.05;0.68;;;6.30;99.90;;;;;;4938128;28;20445;-81
2022/02/15 00:16:40;;;;;;;1.00;0.47;;;6.30;99.90;;;;;;4957454;28;20063;-80
2022/02/15 00:19:05;;;;;;;6.03;0.73;;;6.30;99.90;;;;;;4965597;28;20081;-80
2022/02/15 00:21:32;;;;;;;6.45;0.68;;;6.30;99.90;;;;;;4989588;28;20789;-80
2022/02/15 00:23:58;;;;;;;2.10;0.57;;;6.30;99.90;;;;;;4988067;28;20375;-79
2022/02/15 00:26:24;;;;;;;7.93;0.98;;;6.30;99.90;;;;;;4989226;28;20100;-80
2022/02/15 00:28:49;;;;;;;9.82;1.40;;;6.20;99.90;;;;;;4986701;28;20042;-81
2022/02/15 00:31:15;;;;;;;9.40;0.95;;;6.30;99.90;;;;;;4976203;28;20126;-81
2022/02/15 00:33:41;;;;;;;1.85;0.52;;;6.20;99.90;;;;;;4986540;28;20042;-80
2022/02/15 00:36:07;;;;;;;4.65;1.15;;;6.20;99.90;;;;;;4986205;28;20038;-80
2022/02/15 00:38:32;;;;;;;5.55;0.95;;;6.20;99.90;;;;;;4986311;28;20061;-81
2022/02/15 00:40:58;;;;;;;7.75;1.20;;;6.20;99.90;;;;;;4986424;28;20081;-80
2022/02/15 00:43:24;;;;;;;8.13;1.42;;;6.20;99.90;;;;;;4986159;28;20050;-81
2022/02/15 00:45:49;;;;;;;1.80;0.47;;;6.20;99.90;;;;;;4988302;28;20038;-80
2022/02/15 00:48:15;;;;;;;9.07;1.10;;;6.20;99.90;;;;;;4986576;28;20425;-81
2022/02/15 00:50:41;;;;;;;8.02;0.90;;;6.20;99.90;;;;;;4989044;28;20045;-78
2022/02/15 00:53:07;;;;;;;8.82;1.20;;;6.20;99.90;;;;;;4958332;28;20047;-80
2022/02/15 00:55:32;;;;;;;10.30;1.77;;;6.10;99.90;;;;;;4985799;28;20508;-79
2022/02/15 00:57:58;;;;;;;5.38;1.30;;;6.20;99.90;;;;;;4972435;28;20044;-80
2022/02/15 01:00:25;;;;;;;2.28;0.55;;;6.20;99.90;;;;;;4986023;28;20512;-79
2022/02/15 01:02:51;;;;;;;8.45;1.70;;;6.20;99.90;;;;;;4999110;28;20460;-79
2022/02/15 01:05:17;;;;;;;7.15;1.30;;;6.20;99.90;;;;;;5007363;28;20034;-80
2022/02/15 01:07:42;;;;;;;6.50;0.63;;;6.20;99.90;;;;;;4997631;28;20049;-80
2022/02/15 01:10:09;;;;;;;7.07;1.20;;;6.20;99.90;;;;;;4997572;28;20092;-78
2022/02/15 01:12:35;;;;;;;5.43;0.95;;;6.30;99.90;;;;;;4970199;28;20038;-79
2022/02/15 01:15:01;;;;;;;9.40;1.92;;;6.20;99.90;;;;;;5005271;28;20038;-79
2022/02/15 01:17:26;;;;;;;9.30;1.55;;;6.30;99.90;;;;;;5005022;28;20229;-79
2022/02/15 01:19:52;;;;;;;13.93;2.00;;;6.30;99.90;;;;;;5004781;28;20054;-80
2022/02/15 01:22:18;;;;;;;8.20;0.90;;;6.30;99.90;;;;;;4980612;28;20105;-79
2022/02/15 01:24:44;;;;;;;8.68;1.00;;;6.30;99.90;;;;;;4988229;28;20042;-78
2022/02/15 01:27:09;;;;;;;10.43;1.45;;;6.30;99.90;;;;;;4988318;28;20049;-79
2022/02/15 01:29:35;;;;;;;11.50;1.42;;;6.30;99.90;;;;;;4967551;28;20073;-79
2022/02/15 01:32:01;;;;;;;8.73;1.00;;;6.30;99.90;;;;;;4976337;28;20133;-79
2022/02/15 01:34:27;;;;;;;9.55;1.98;;;6.30;99.90;;;;;;4967081;28;20126;-81
2022/02/15 01:36:53;;;;;;;9.48;1.95;;;6.30;99.90;;;;;;4968416;28;20129;-79
2022/02/15 01:39:19;;;;;;;5.90;0.75;;;6.40;99.90;;;;;;4972697;28;20449;-78
2022/02/15 01:41:45;;;;;;;7.57;1.65;;;6.50;99.90;;;;;;4965468;28;20042;-80
2022/02/15 01:44:12;;;;;;;7.72;1.10;;;6.50;99.90;;;;;;4965389;28;20171;-79
2022/02/15 01:46:39;;;;;;;5.00;0.43;;;6.50;99.90;;;;;;4972433;28;20050;-80
2022/02/15 01:49:05;;;;;;;16.50;2.00;;;6.50;99.90;;;;;;4965763;28;20073;-79
2022/02/15 01:51:30;;;;;;;7.38;1.27;;;6.50;99.90;;;;;;4976710;28;20038;-79
2022/02/15 01:53:56;;;;;;;10.88;1.48;;;6.50;99.90;;;;;;4951729;28;20046;-79
2022/02/15 01:56:23;;;;;;;9.88;0.98;;;6.50;99.90;;;;;;4965192;28;20042;-80
2022/02/15 01:58:48;;;;;;;15.77;2.20;;;6.50;99.90;;;;;;4964560;28;20105;-79
2022/02/15 02:01:14;;;;;;;15.77;2.47;;;6.50;99.90;;;;;;4975437;28;20047;-79
2022/02/15 02:03:40;;;;;;;3.65;0.73;;;6.50;99.90;;;;;;4947308;28;20042;-79
2022/02/15 02:06:05;;;;;;;10.05;1.70;;;6.50;99.90;;;;;;4985259;28;20046;-78
2022/02/15 02:08:33;;;;;;;12.80;2.22;;;6.50;99.90;;;;;;4968570;28;20054;-80
2022/02/15 02:11:00;;;;;;;16.95;1.35;;;6.50;99.90;;;;;;4998710;28;20033;-80
2022/02/15 02:13:27;;;;;;;13.35;1.83;;;6.50;99.90;;;;;;4972693;28;20052;-79
2022/02/15 02:15:53;;;;;;;11.93;1.65;;;6.50;99.90;;;;;;4967822;28;20047;-79
2022/02/15 02:18:19;;;;;;;10.93;2.40;;;6.50;99.90;;;;;;4933129;28;20426;-80
2022/02/15 02:20:45;;;;;;;15.07;1.65;;;6.60;99.90;;;;;;4936923;28;20052;-80
2022/02/15 02:23:12;;;;;;;15.68;1.77;;;6.60;99.90;;;;;;4937775;28;20133;-79
2022/02/15 02:25:38;;;;;;;1.50;0.70;;;6.60;99.90;;;;;;4931132;28;20097;-79
2022/02/15 02:28:05;;;;;;;15.35;2.45;;;6.60;99.90;;;;;;4929790;28;20051;-80
2022/02/15 02:30:31;;;;;;;9.00;1.00;;;6.60;99.90;;;;;;4938823;28;20043;-78
2022/02/15 02:32:56;;;;;;;9.55;1.58;;;6.60;99.90;;;;;;4910784;28;20050;-78
2022/02/15 02:35:22;;;;;;;11.98;1.15;;;6.70;99.90;;;;;;4944166;28;20062;-80
2022/02/15 02:37:49;;;;;;;20.25;1.20;;;6.70;99.90;;;;;;4927835;28;20050;-79
2022/02/15 02:40:15;;;;;;;15.07;3.08;;;6.80;99.90;;;;;;4950013;28;20043;-79
2022/02/15 02:42:41;;;;;;;15.57;1.92;;;6.70;99.90;;;;;;4932142;28;20095;-80
2022/02/15 02:45:13;;;;;;;8.27;1.65;;;6.70;99.90;;;;;;4949241;28;20046;-78
2022/02/15 02:47:45;;;;;;;5.32;1.05;;;6.70;99.90;;;;;;4948966;28;20516;-79
2022/02/15 02:50:12;;;;;;;4.20;0.52;;;6.70;99.90;;;;;;4949478;28;20690;-79
2022/02/15 02:52:39;;;;;;;11.82;1.80;;;6.70;99.90;;;;;;4940940;28;20518;-79
2022/02/15 02:55:05;;;;;;;17.60;2.20;;;6.70;99.90;;;;;;4947959;28;20089;-81
2022/02/15 02:57:33;;;;;;;9.55;1.52;;;6.60;99.90;;;;;;4938822;28;20054;-79
2022/02/15 02:59:59;;;;;;;9.90;1.67;;;6.60;99.90;;;;;;4948213;28;20517;-80
2022/02/15 03:02:24;;;;;;;12.30;1.42;;;6.50;99.90;;;;;;4925941;29;20043;-79
2022/02/15 03:04:50;;;;;;;6.78;1.38;;;6.50;99.90;;;;;;4936158;28;20031;-79
2022/02/15 03:07:16;;;;;;;14.50;1.40;;;6.50;99.90;;;;;;4931364;28;20090;-81
2022/02/15 03:09:42;;;;;;;14.52;1.38;;;6.50;99.90;;;;;;4948079;28;20254;-80
2022/02/15 03:12:10;;;;;;;17.70;2.17;;;6.50;99.90;;;;;;4967058;28;20043;-80
2022/02/15 03:14:36;;;;;;;8.55;1.80;;;6.50;99.90;;;;;;4955250;28;20173;-79
2022/02/15 03:17:01;;;;;;;10.13;1.73;;;6.50;99.90;;;;;;4964254;28;20145;-79
2022/02/15 03:19:27;;;;;;;13.65;2.22;;;6.50;99.90;;;;;;4991648;28;20091;-79
2022/02/15 03:21:53;;;;;;;17.02;2.05;;;6.50;99.90;;;;;;4991056;28;20111;-80
2022/02/15 03:24:19;;;;;;;12.15;1.73;;;6.50;99.90;;;;;;4991096;28;20050;-81
2022/02/15 03:26:45;;;;;;;7.90;1.40;;;6.50;99.90;;;;;;4972062;28;20042;-80
2022/02/15 03:29:11;;;;;;;10.85;1.95;;;6.50;99.90;;;;;;4969330;28;20073;-80
2022/02/15 03:31:38;;;;;;;11.35;2.33;;;6.50;99.90;;;;;;4964100;28;20133;-80
2022/02/15 03:34:04;;;;;;;11.98;1.98;;;6.50;99.90;;;;;;4969300;28;20566;-80
2022/02/15 03:36:30;;;;;;;16.02;2.30;;;6.50;99.90;;;;;;4976116;28;20037;-80
2022/02/15 03:38:55;;;;;;;19.52;3.22;;;6.50;99.90;;;;;;4951377;28;20057;-80
2022/02/15 03:44:05;;;;;;;13.73;2.33;;;6.40;99.90;;;;;;4990869;28;20050;-80
2022/02/15 03:46:31;;;;;;;16.48;2.83;;;6.40;99.90;;;;;;4990403;28;20127;-79
2022/02/15 03:48:57;;;;;;;14.52;2.35;;;6.40;99.90;;;;;;4990536;28;20077;-81
2022/02/15 03:51:23;;;;;;;16.10;2.30;;;6.50;99.90;;;;;;4990183;28;20086;-80
2022/02/15 03:53:49;;;;;;;10.05;1.92;;;6.40;99.90;;;;;;4958497;28;20046;-81
2022/02/15 03:56:14;;;;;;;18.15;2.55;;;6.40;99.90;;;;;;4974352;28;20061;-80
2022/02/15 03:58:41;;;;;;;11.77;1.85;;;6.40;99.90;;;;;;4990751;28;20042;-79
2022/02/15 04:01:07;;;;;;;11.10;1.63;;;6.40;99.90;;;;;;4981180;28;20081;-80
2022/02/15 04:03:33;;;;;;;13.57;1.95;;;6.50;99.90;;;;;;4971076;28;20050;-81
2022/02/15 04:05:58;;;;;;;16.15;2.67;;;6.40;99.90;;;;;;4957998;28;20057;-79
2022/02/15 04:08:25;;;;;;;18.48;2.60;;;6.40;99.90;;;;;;4990205;28;20056;-80
2022/02/15 04:10:51;;;;;;;2.70;0.70;;;6.50;99.90;;;;;;4986122;28;20393;-80
2022/02/15 04:13:17;;;;;;;10.68;1.42;;;6.50;99.90;;;;;;4974071;28;20431;-80
2022/02/15 04:15:44;;;;;;;17.92;2.53;;;6.50;99.90;;;;;;4990485;28;20509;-80
2022/02/15 04:18:10;;;;;;;9.93;1.35;;;6.50;99.90;;;;;;4990369;28;20501;-79
2022/02/15 04:20:37;;;;;;;12.15;1.75;;;6.50;99.90;;;;;;4988836;28;20056;-79
2022/02/15 04:23:03;;;;;;;11.57;1.55;;;6.50;99.90;;;;;;4975903;28;20076;-80
2022/02/15 04:25:28;;;;;;;12.20;2.25;;;6.50;99.90;;;;;;4990835;28;20049;-80
2022/02/15 04:27:54;;;;;;;14.88;2.33;;;6.50;99.90;;;;;;4973316;28;20050;-79
2022/02/15 04:30:20;;;;;;;12.73;2.00;;;6.50;99.90;;;;;;4974165;28;20088;-80
2022/02/15 04:32:46;;;;;;;9.05;1.33;;;6.40;99.90;;;;;;4973927;28;20050;-79
2022/02/15 04:35:12;;;;;;;10.45;1.77;;;6.50;99.90;;;;;;4973484;28;20476;-80
2022/02/15 04:37:37;;;;;;;13.52;1.70;;;6.40;99.90;;;;;;4961026;28;20053;-80
2022/02/15 04:40:05;;;;;;;7.07;1.52;;;6.50;99.90;;;;;;4970030;28;20042;-79
2022/02/15 04:42:31;;;;;;;7.45;1.98;;;6.50;99.90;;;;;;4946825;28;20031;-80
2022/02/15 04:44:56;;;;;;;8.55;1.30;;;6.50;99.90;;;;;;4955922;28;20061;-80
2022/02/15 04:47:22;;;;;;;12.35;1.95;;;6.50;99.90;;;;;;4960087;28;20038;-80
2022/02/15 04:49:48;;;;;;;12.68;1.48;;;6.50;99.90;;;;;;4953587;28;20050;-78
2022/02/15 04:52:14;;;;;;;17.00;2.03;;;6.50;99.90;;;;;;4969911;28;20078;-79
2022/02/15 04:54:40;;;;;;;15.60;2.22;;;6.50;99.90;;;;;;4968693;28;20044;-80
2022/02/15 04:57:06;;;;;;;11.48;1.60;;;6.40;99.90;;;;;;4970052;28;20046;-80
2022/02/15 04:59:32;;;;;;;10.50;1.67;;;6.40;99.90;;;;;;4954187;28;20125;-80
2022/02/15 05:01:58;;;;;;;12.02;2.50;;;6.40;99.90;;;;;;4967592;28;20174;-81
2022/02/15 05:07:08;;;;;;;9.75;1.92;;;6.40;99.90;;;;;;4961907;28;20525;-80
2022/02/15 05:09:33;;;;;;;10.90;1.65;;;6.40;99.90;;;;;;4975979;28;20069;-80
2022/02/15 05:11:59;;;;;;;15.20;3.58;;;6.40;99.90;;;;;;4989452;28;20041;-79
2022/02/15 05:14:25;;;;;;;11.85;1.65;;;6.40;99.90;;;;;;4983346;28;20072;-80
2022/02/15 05:16:51;;;;;;;5.30;1.25;;;6.40;99.90;;;;;;4972542;28;20149;-81
2022/02/15 05:19:16;;;;;;;12.02;2.10;;;6.40;99.90;;;;;;4972867;28;20089;-80
2022/02/15 05:21:42;;;;;;;6.40;1.60;;;6.40;99.90;;;;;;4980661;28;20501;-79
2022/02/15 05:24:08;;;;;;;10.40;1.92;;;6.40;99.90;;;;;;4963199;28;20092;-79
2022/02/15 05:26:34;;;;;;;12.82;3.25;;;6.40;99.90;;;;;;4988984;28;20046;-80
2022/02/15 05:29:00;;;;;;;13.75;1.85;;;6.40;99.90;;;;;;4972862;28;20044;-80
2022/02/15 05:31:26;;;;;;;13.13;1.90;;;6.40;99.90;;;;;;4980855;28;20484;-80
2022/02/15 05:33:53;;;;;;;11.60;1.60;;;6.40;99.90;;;;;;4938719;28;20634;-81
2022/02/15 05:36:18;;;;;;;10.40;1.38;;;6.40;99.90;;;;;;4956809;28;20512;-80
2022/02/15 05:38:44;;;;;;;6.30;1.42;;;6.40;99.90;;;;;;4987738;28;20050;-80
2022/02/15 05:41:10;;;;;;;7.22;1.40;;;6.40;99.90;;;;;;4972462;28;20042;-79
2022/02/15 05:43:36;;;;;;;8.52;0.88;;;6.40;99.90;;;;;;4988915;28;20045;-80
2022/02/15 05:46:02;;;;;;;15.18;1.80;;;6.40;99.90;;;;;;4961756;28;20397;-80
2022/02/15 05:48:28;;;;;;;10.02;1.20;;;6.40;99.90;;;;;;4987269;28;20037;-80
2022/02/15 05:50:55;;;;;;;6.47;1.33;;;6.40;99.90;;;;;;4988381;28;20288;-80
2022/02/15 05:53:23;;;;;;;10.23;1.40;;;6.40;99.90;;;;;;4988429;28;20061;-80
2022/02/15 05:55:51;;;;;;;14.93;1.77;;;6.40;99.90;;;;;;4982615;28;20834;-80
2022/02/15 05:58:17;;;;;;;12.75;1.58;;;6.40;99.90;;;;;;4984026;28;20046;-80
2022/02/15 06:00:43;;;;;;;11.13;1.55;;;6.40;99.90;;;;;;4988252;28;20046;-80
2022/02/15 06:05:53;;;;;;;12.65;1.70;;;6.30;99.90;;;;;;4961338;28;22177;-80
2022/02/15 06:08:19;;;;;;;12.60;1.58;;;6.40;99.90;;;;;;4983211;28;20042;-81
2022/02/15 06:10:46;;;;;;;6.20;1.13;;;6.30;99.90;;;;;;4971700;28;20064;-80
2022/02/15 06:13:13;;;;;;;13.70;1.65;;;6.30;99.90;;;;;;4988797;28;20037;-80
2022/02/15 06:15:39;;;;;;;2.15;0.82;;;6.30;99.90;;;;;;4988096;28;20532;-81
2022/02/15 06:18:04;;;;;;;12.85;2.10;;;6.30;99.90;;;;;;4977310;28;20429;-80
2022/02/15 06:20:30;;;;;;;10.40;1.60;;;6.30;99.90;;;;;;4956212;28;20524;-80
2022/02/15 06:22:56;;;;;;;13.10;2.15;;;6.30;99.90;;;;;;4987794;28;20173;-80
2022/02/15 06:25:22;;;;;;;10.95;2.70;;;6.40;99.90;;;;;;4988553;28;20089;-79
2022/02/15 06:27:48;;;;;;;9.43;1.67;;;6.40;99.90;;;;;;4978614;28;20098;-80
2022/02/15 06:30:14;;;;;;;9.30;2.15;;;6.30;99.90;;;;;;4988605;28;20049;-80
2022/02/15 06:32:40;;;;;;;11.73;2.28;;;6.30;99.90;;;;;;4961642;28;20053;-80
2022/02/15 06:35:07;;;;;;;6.97;1.92;;;6.30;99.90;;;;;;4971629;28;20049;-80
2022/02/15 06:37:34;;;;;;;16.75;2.40;;;6.30;99.90;;;;;;4966409;28;20050;-80
2022/02/15 06:40:00;;;;;;;12.35;2.03;;;6.30;99.90;;;;;;4987927;28;20049;-80
2022/02/15 06:42:26;;;;;;;9.52;2.00;;;6.30;99.90;;;;;;4956468;28;20049;-80
2022/02/15 06:44:52;;;;;;;11.30;2.80;;;6.30;99.90;;;;;;4987315;28;20045;-80
2022/02/15 06:47:17;;;;;;;16.30;2.50;;;6.30;99.90;;;;;;4972538;28;20099;-80
2022/02/15 06:49:43;;;;;;;12.65;2.53;;;6.30;99.90;;;;;;4982472;28;20464;-80
2022/02/15 06:52:09;;;;;;;14.07;3.10;;;6.30;99.90;;;;;;4990384;28;20045;-80
2022/02/15 06:54:35;;;;;;;11.25;2.85;;;6.30;99.90;;;;;;4991788;28;20455;-80
2022/02/15 06:57:01;;;;;;;8.07;2.95;;;6.30;99.90;;;;;;4991040;28;20060;-79
2022/02/15 06:59:26;;;;;;;12.60;3.15;;;6.30;99.90;;;;;;4973743;28;20038;-80
2022/02/15 07:01:52;;;;;;;15.38;4.13;;;6.30;99.90;;;;;;4965269;28;20177;-80
2022/02/15 07:04:18;;;;;;;14.57;3.92;;;6.40;99.90;;;;;;4975433;28;20038;-80
2022/02/15 07:06:44;;;;;;;24.00;5.10;;;6.40;99.90;;;;;;5009198;28;20050;-80
2022/02/15 07:09:09;;;;;;;11.07;4.00;;;6.40;99.90;;;;;;5006823;28;20100;-80
2022/02/15 07:11:35;;;;;;;15.20;4.60;;;6.30;99.90;;;;;;4991173;28;20042;-80
2022/02/15 07:14:02;;;;;;;17.65;4.32;;;6.30;99.90;;;;;;4974700;28;20533;-82
2022/02/15 07:16:28;;;;;;;11.88;3.55;;;6.30;99.90;;;;;;4974987;28;20136;-80
2022/02/15 07:18:53;;;;;;;11.27;5.28;;;6.30;99.90;;;;;;4974119;28;20559;-80
2022/02/15 07:21:19;;;;;;;24.27;5.50;;;6.30;99.90;;;;;;4956110;28;20034;-80
2022/02/15 07:23:45;;;;;;;17.05;4.80;;;6.30;99.90;;;;;;4982636;28;20493;-80
2022/02/15 07:26:10;;;;;;;16.65;5.15;;;6.30;99.90;;;;;;4975134;28;20053;-80
2022/02/15 07:28:37;;;;;;;14.13;5.30;;;6.30;99.90;;;;;;4982585;28;20077;-81
2022/02/15 07:31:03;;;;;;;17.30;4.63;;;6.30;99.90;;;;;;4983551;28;20053;-80
2022/02/15 07:33:28;;;;;;;16.33;5.43;;;6.40;99.90;;;;;;4951619;28;20046;-80
2022/02/15 07:35:54;;;;;;;19.98;4.65;;;6.40;99.90;;;;;;4990732;28;20164;-82
2022/02/15 07:38:21;;;;;;;19.50;5.30;;;6.40;99.90;;;;;;4954746;28;20039;-80
2022/02/15 07:40:47;;;;;;;21.30;5.03;;;6.40;99.90;;;;;;4982940;28;20411;-80
2022/02/15 07:43:13;;;;;;;18.58;5.35;;;6.40;99.90;;;;;;4990609;28;20045;-80
2022/02/15 07:45:40;;;;;;;13.00;4.88;;;6.40;99.90;;;;;;4990899;28;20073;-80
2022/02/15 07:48:07;;;;;;;16.65;4.40;;;6.40;99.90;;;;;;4990886;28;20108;-80
2022/02/15 07:50:33;;;;;;;17.52;6.50;;;6.40;99.90;;;;;;4981809;28;20126;-81
2022/02/15 07:52:59;;;;;;;21.73;5.93;;;6.50;99.90;;;;;;4990464;28;20128;-81
2022/02/15 07:55:25;;;;;;;22.55;6.38;;;6.50;99.90;;;;;;4958611;28;20038;-80
2022/02/15 07:57:51;;;;;;;19.83;5.57;;;6.50;99.90;;;;;;4958416;28;20434;-80
2022/02/15 08:00:21;;;;;;;17.70;6.05;;;6.50;99.90;;;;;;4965104;28;20116;-79
2022/02/15 08:02:48;;;;;;;13.18;4.72;;;6.40;99.90;;;;;;4947131;28;20536;-80
2022/02/15 08:05:14;;;;;;;17.63;5.78;;;6.50;99.90;;;;;;4971443;28;20057;-80
2022/02/15 08:07:51;;;;;;;20.90;6.53;;;6.50;99.90;;;;;;4944573;28;20034;-80
2022/02/15 08:10:18;;;;;;;23.38;7.38;;;6.60;99.90;;;;;;4973844;28;20478;-80
2022/02/15 08:12:55;;;;;;;17.90;6.40;;;6.60;99.90;;;;;;4968879;28;20046;-80
2022/02/15 08:15:29;;;;;;;17.88;6.30;;;6.60;99.90;;;;;;4968253;28;20046;-81
2022/02/15 08:17:56;;;;;;;19.88;6.13;;;6.60;99.90;;;;;;4952790;28;20050;-80
2022/02/15 08:20:22;;;;;;;19.70;6.85;;;6.60;99.90;;;;;;4970065;28;20085;-80
2022/02/15 08:22:48;;;;;;;21.67;7.18;;;6.60;99.90;;;;;;4964031;28;20042;-80
2022/02/15 08:25:14;;;;;;;15.13;6.70;;;6.70;99.90;;;;;;4982546;28;20125;-80
2022/02/15 08:27:40;;;;;;;25.33;7.57;;;6.70;99.90;;;;;;4964067;28;20153;-81
2022/02/15 08:30:06;;;;;;;28.65;8.00;;;6.70;99.90;;;;;;4938460;28;20078;-80
2022/02/15 08:32:32;;;;;;;18.08;6.65;;;6.70;99.90;;;;;;4937179;28;20049;-80
2022/02/15 08:34:58;;;;;;;22.58;7.45;;;6.70;99.90;;;;;;4949232;28;20039;-80
2022/02/15 08:37:24;;;;;;;19.23;8.27;;;6.70;99.90;;;;;;4958455;28;20531;-80
2022/02/15 08:39:50;;;;;;;21.00;7.32;;;6.70;99.90;;;;;;4960154;28;20420;-80
2022/02/15 08:42:16;;;;;;;18.55;5.75;;;6.80;99.90;;;;;;4962061;28;20196;-81
2022/02/15 08:44:42;;;;;;;21.42;7.78;;;6.90;99.90;;;;;;4935660;28;20035;-80
2022/02/15 08:47:08;;;;;;;28.63;8.77;;;6.90;99.90;;;;;;4952524;28;20476;-80
2022/02/15 08:49:37;;;;;;;22.70;7.68;;;7.00;99.90;;;;;;4957214;28;20054;-80
2022/02/15 08:52:04;;;;;;;11.85;4.30;;;7.00;99.90;;;;;;4962586;28;20573;-82
2022/02/15 08:54:30;;;;;;;16.75;6.55;;;7.00;99.90;;;;;;4962915;28;20045;-81
2022/02/15 08:56:56;;;;;;;27.05;7.72;;;7.00;99.90;;;;;;4976545;28;20042;-80
2022/02/15 08:59:22;;;;;;;18.83;7.28;;;7.00;99.90;;;;;;4960303;28;20116;-80
2022/02/15 09:01:48;;;;;;;17.40;6.57;;;7.10;99.90;;;;;;4953545;28;20057;-81
2022/02/15 09:04:18;;;;;;;22.45;8.00;;;7.20;99.90;;;;;;4967287;28;20404;-80
2022/02/15 09:06:44;;;;;;;9.45;5.00;;;7.20;99.90;;;;;;4967652;28;20612;-80
2022/02/15 09:09:10;;;;;;;19.58;6.53;;;7.20;99.90;;;;;;4940272;28;20070;-80
2022/02/15 09:11:37;;;;;;;19.40;6.95;;;7.20;99.90;;;;;;4953475;28;20489;-81
2022/02/15 09:14:03;;;;;;;26.00;7.63;;;7.20;99.90;;;;;;4955750;28;20231;-74
2022/02/15 09:16:30;;;;;;;23.80;7.65;;;7.30;99.90;;;;;;4938056;28;20552;-80
2022/02/15 09:18:57;;;;;;;32.72;8.25;;;7.40;99.90;;;;;;4970402;28;20882;-81
2022/02/15 09:21:23;;;;;;;24.25;7.55;;;7.40;99.90;;;;;;4950636;28;20054;-81
2022/02/15 09:23:50;;;;;;;22.90;7.32;;;7.40;99.90;;;;;;4944685;28;20085;-81
2022/02/15 09:26:16;;;;;;;22.13;8.35;;;7.40;99.90;;;;;;4981768;28;20052;-81
2022/02/15 09:28:41;;;;;;;16.30;7.82;;;7.40;99.90;;;;;;4951806;28;20046;-82
2022/02/15 09:31:08;;;;;;;19.48;7.18;;;7.40;99.90;;;;;;4940056;28;20049;-81
2022/02/15 09:33:34;;;;;;;15.85;7.32;;;7.50;99.90;;;;;;4949166;28;20144;-82
2022/02/15 09:36:00;;;;;;;25.10;7.30;;;7.50;99.90;;;;;;4952468;28;20401;-81
2022/02/15 09:38:26;;;;;;;20.35;7.50;;;7.50;99.90;;;;;;4952490;28;20046;-80
2022/02/15 09:40:51;;;;;;;22.40;7.28;;;7.50;99.90;;;;;;4969753;28;20393;-80
2022/02/15 09:43:18;;;;;;;16.27;7.18;;;7.60;99.90;;;;;;4952509;28;20811;-79
2022/02/15 09:45:48;;;;;;;18.42;8.52;;;7.60;99.90;;;;;;4952744;28;20046;-79
2022/02/15 09:48:18;;;;;;;;;;;7.60;99.90;;;;;;4970071;28;20038;-81
2022/02/15 09:50:45;;;;;;;19.77;7.55;;;7.60;99.90;;;;;;4967935;28;20407;-80
2022/02/15 09:53:11;;;;;;;21.73;8.02;;;7.60;99.90;;;;;;4952085;28;20134;-79
2022/02/15 09:55:37;;;;;;;10.63;5.70;;;7.60;99.90;;;;;;4944310;28;20505;-80
2022/02/15 09:58:03;;;;;;;17.63;8.68;;;7.70;99.90;;;;;;4950442;28;20053;-79
2022/02/15 10:00:29;;;;;;;16.42;7.63;;;7.70;99.90;;;;;;4951703;28;20049;-77
2022/02/15 10:02:58;;;;;;;9.80;3.80;;;7.80;99.90;;;;;;4949160;28;20493;-76
2022/02/15 10:05:31;;;;;;;21.83;7.93;;;7.90;99.90;;;;;;4949895;28;20046;-78
2022/02/15 10:07:57;;;;;;;22.60;8.50;;;7.90;99.90;;;;;;4947234;28;20125;-77
2022/02/15 10:10:30;;;;;;;12.50;4.90;;;7.90;99.90;;;;;;4984531;28;20057;-78
2022/02/15 10:13:08;;;;;;;24.83;8.00;;;7.90;99.90;;;;;;4961830;28;20053;-78
2022/02/15 10:15:37;;;;;;;12.75;3.67;;;7.90;99.90;;;;;;4982280;28;20050;-78
2022/02/15 10:18:10;;;;;;;9.90;4.22;;;8.00;99.90;;;;;;4960849;28;20068;-76
2022/02/15 10:20:37;;;;;;;17.10;3.75;;;8.20;99.90;;;;;;4988816;28;20057;-78
2022/02/15 10:23:16;;;;;;;17.00;5.20;;;8.20;99.90;;;;;;4973984;28;20128;-78
2022/02/15 10:25:42;;;;;;;9.05;4.85;;;8.20;99.90;;;;;;5002768;28;20034;-78
2022/02/15 10:28:29;;;;;;;19.30;6.20;;;8.20;99.90;;;;;;4991497;28;20041;-77
2022/02/15 10:30:56;;;;;;;10.45;4.45;;;8.30;99.90;;;;;;4981260;28;20106;-77
2022/02/15 10:33:32;;;;;;;16.63;4.75;;;8.30;99.90;;;;;;4962797;28;20053;-75
2022/02/15 10:36:02;;;;;;;8.93;3.97;;;8.30;99.90;;;;;;4989226;28;20562;-78
2022/02/15 10:38:30;;;;;;;16.65;4.78;;;8.30;99.90;;;;;;4981160;28;20042;-77
2022/02/15 10:40:59;;;;;;;10.65;3.63;;;8.40;99.90;;;;;;4954107;28;20650;-77
2022/02/15 10:43:39;;;;;;;13.57;3.88;;;8.40;99.90;;;;;;4981571;28;20047;-77
2022/02/15 10:46:20;;;;;;;16.17;3.70;;;8.40;99.90;;;;;;4971904;28;20050;-76
2022/02/15 10:48:46;;;;;;;;;;;8.50;99.90;;;;;;4971559;28;20049;-76
2022/02/15 10:51:12;;;;;;;7.50;2.72;;;8.70;99.90;;;;;;4971738;28;19933;-76
2022/02/15 10:53:38;;;;;;;4.97;1.98;;;8.70;99.90;;;;;;4948592;28;20702;-76
2022/02/15 10:56:05;;;;;;;13.85;3.50;;;8.70;99.90;;;;;;4971837;28;21055;-77
2022/02/15 10:58:32;;;;;;;6.63;2.08;;;8.70;99.90;;;;;;4955708;28;20042;-77
2022/02/15 11:01:00;;;;;;;8.13;2.05;;;8.70;99.90;;;;;;4968669;28;20462;-78
2022/02/15 11:03:30;;;;;;;19.85;2.33;;;8.70;99.90;;;;;;4942452;28;20039;-77
2022/02/15 11:05:56;;;;;;;12.15;2.63;;;8.80;99.90;;;;;;4971929;28;20046;-77
2022/02/15 11:08:23;;;;;;;7.97;2.40;;;8.70;99.90;;;;;;4965622;28;20074;-76
2022/02/15 11:11:04;;;;;;;9.57;2.97;;;8.70;99.90;;;;;;4956713;28;20061;-77
2022/02/15 11:13:32;;;;;;;8.13;2.35;;;8.70;99.90;;;;;;4953184;28;20046;-77
2022/02/15 11:16:00;;;;;;;9.27;2.50;;;8.70;99.90;;;;;;4947971;28;20409;-77
2022/02/15 11:18:34;;;;;;;13.20;2.90;;;8.60;99.90;;;;;;4951845;28;20050;-77
2022/02/15 11:21:03;;;;;;;6.60;2.55;;;8.60;99.90;;;;;;4971966;28;20117;-78
2022/02/15 11:23:31;;;;;;;13.40;2.97;;;8.60;99.90;;;;;;4970601;28;20046;-76
2022/02/15 11:26:05;;;;;;;7.78;2.22;;;8.50;99.90;;;;;;4961446;28;20061;-77
2022/02/15 11:28:31;;;;;;;10.80;4.50;;;8.60;99.90;;;;;;4962760;28;20070;-77
2022/02/15 11:31:00;;;;;;;9.25;1.90;;;8.60;99.90;;;;;;4953065;28;20504;-77
2022/02/15 11:33:38;;;;;;;12.73;2.28;;;8.60;99.90;;;;;;4964027;28;20051;-77
2022/02/15 11:36:07;;;;;;;7.72;1.98;;;8.50;99.90;;;;;;4953977;28;20376;-79
2022/02/15 11:38:35;;;;;;;8.35;1.85;;;8.40;99.90;;;;;;4951949;28;20133;-78
2022/02/15 11:41:06;;;;;;;9.80;2.08;;;8.30;99.90;;;;;;4977934;28;20055;-79
2022/02/15 11:43:34;;;;;;;13.38;2.53;;;8.10;99.90;;;;;;4964829;28;20448;-78
2022/02/15 11:46:01;;;;;;;7.35;2.50;;;8.00;99.90;;;;;;4944540;28;20046;-79
2022/02/15 11:48:39;;;;;;;8.70;1.45;;;8.00;99.90;;;;;;4964387;28;20039;-77
2022/02/15 11:51:20;;;;;;;4.75;1.65;;;8.10;99.90;;;;;;4954221;28;20054;-78
2022/02/15 11:53:47;;;;;;;6.40;1.85;;;8.20;99.90;;;;;;4979346;28;20425;-78
2022/02/15 11:56:15;;;;;;;6.93;1.60;;;8.40;99.90;;;;;;4950567;28;20120;-74
2022/02/15 11:58:49;;;;;;;4.13;1.40;;;8.50;99.90;;;;;;4956603;28;20465;-74
2022/02/15 12:01:28;;;;;;;6.55;2.00;;;8.50;99.90;;;;;;4958843;28;20059;-75
2022/02/15 12:03:59;;;;;;;4.63;1.60;;;8.60;99.90;;;;;;4966000;28;20043;-75
2022/02/15 12:06:42;;;;;;;5.45;1.55;;;8.70;99.90;;;;;;4962962;28;20109;-76
2022/02/15 12:09:09;;;;;;;3.45;1.13;;;8.80;99.90;;;;;;4964116;28;20053;-75
2022/02/15 12:11:36;;;;;;;3.25;1.08;;;9.00;99.90;;;;;;4989431;28;20141;-74
2022/02/15 12:14:06;;;;;;;3.47;1.20;;;9.10;99.90;;;;;;4989042;28;20050;-74
2022/02/15 12:16:49;;;;;;;2.78;1.17;;;9.00;99.90;;;;;;5007910;28;20049;-75
2022/02/15 12:19:36;;;;;;;4.78;1.30;;;8.80;99.90;;;;;;4980006;28;20058;-74
2022/02/15 12:22:14;;;;;;;5.20;1.25;;;8.70;99.90;;;;;;4946573;28;20050;-75
2022/02/15 12:24:40;;;;;;;5.60;1.33;;;8.70;99.90;;;;;;4938298;28;20047;-75
2022/02/15 12:27:07;;;;;;;6.75;1.38;;;8.80;99.90;;;;;;4950960;28;20121;-75
2022/02/15 12:29:34;;;;;;;2.90;0.93;;;8.80;99.90;;;;;;4950525;28;20078;-75
2022/02/15 12:32:03;;;;;;;3.22;0.88;;;8.80;99.90;;;;;;4950251;28;20497;-75
2022/02/15 12:34:30;;;;;;;5.88;1.30;;;8.80;99.90;;;;;;4950438;28;20090;-76
2022/02/15 12:36:56;;;;;;;3.65;1.02;;;8.80;99.90;;;;;;4968330;28;20576;-75
2022/02/15 12:39:35;;;;;;;7.20;1.05;;;8.80;99.90;;;;;;4949625;28;20050;-75
2022/02/15 12:42:18;;;;;;;8.02;1.10;;;8.70;99.90;;;;;;4949653;28;20441;-75
2022/02/15 12:45:01;;;;;;;9.63;1.10;;;8.70;99.90;;;;;;4949815;28;20117;-75
2022/02/15 12:47:29;;;;;;;5.97;1.30;;;8.70;99.90;;;;;;4950851;28;20493;-75
2022/02/15 12:49:57;;;;;;;4.07;0.82;;;8.90;99.90;;;;;;4966207;28;20498;-74
2022/02/15 12:52:26;;;;;;;3.15;0.98;;;9.10;99.90;;;;;;4950729;28;20073;-75
2022/02/15 12:54:54;;;;;;;3.55;0.90;;;9.10;99.90;;;;;;4950658;28;20054;-75
2022/02/15 12:57:21;;;;;;;9.85;1.50;;;9.10;99.90;;;;;;4932893;28;20057;-71
2022/02/15 12:59:52;;;;;;;2.92;0.88;;;9.30;99.90;;;;;;4952174;28;20491;-74